createdAt,value
2019-02-26T00:00:31.521Z,1.30
2019-02-26T00:03:04.711Z,1.20
2019-02-26T00:05:36.817Z,1.00
2019-02-26T00:08:08.276Z,0.80
2019-02-26T00:10:39.884Z,0.70
2019-02-26T00:13:11.401Z,0.60
2019-02-26T00:15:45.434Z,0.60
2019-02-26T00:18:18.785Z,0.50
2019-02-26T00:20:49.560Z,0.40
2019-02-26T00:23:22.050Z,0.40
2019-02-26T00:25:54.625Z,0.40
2019-02-26T00:28:26.075Z,0.40
2019-02-26T00:30:59.331Z,0.40
2019-02-26T00:33:30.620Z,0.50
2019-02-26T00:36:01.972Z,0.40
2019-02-26T00:38:35.322Z,0.30
2019-02-26T00:41:07.015Z,0.30
2019-02-26T00:43:38.552Z,0.20
2019-02-26T00:46:10.393Z,0.20
2019-02-26T00:48:43.125Z,0.20
2019-02-26T00:51:16.126Z,0.20
2019-02-26T00:53:50.825Z,0.30
2019-02-26T00:56:22.812Z,0.50
2019-02-26T00:58:54.746Z,0.40
2019-02-26T01:01:26.232Z,0.40
2019-02-26T01:03:57.932Z,0.30
2019-02-26T01:06:31.040Z,0.20
2019-02-26T01:09:05.533Z,0.10
2019-02-26T01:11:36.586Z,0.10
2019-02-26T01:14:08.303Z,0.00
2019-02-26T01:16:42.076Z,0.00
2019-02-26T01:19:15.197Z,0.00
2019-02-26T01:21:46.475Z,0.00
2019-02-26T01:24:17.845Z,0.00
2019-02-26T01:26:49.885Z,-0.10
2019-02-26T01:29:22.993Z,0.00
2019-02-26T01:31:55.059Z,0.00
2019-02-26T01:34:26.442Z,-0.10
2019-02-26T01:36:57.888Z,-0.10
2019-02-26T01:39:29.347Z,-0.10
2019-02-26T01:42:00.725Z,-0.10
2019-02-26T01:44:35.092Z,-0.20
2019-02-26T01:47:06.054Z,-0.30
2019-02-26T01:49:37.579Z,-0.30
2019-02-26T01:52:10.599Z,-0.40
2019-02-26T01:54:42.174Z,-0.40
2019-02-26T01:57:13.632Z,-0.30
2019-02-26T01:59:47.444Z,-0.30
2019-02-26T02:02:20.404Z,-0.20
2019-02-26T02:04:51.641Z,0.00
2019-02-26T02:07:24.270Z,0.10
2019-02-26T02:09:58.097Z,0.00
2019-02-26T02:12:31.989Z,-0.10
2019-02-26T02:15:03.473Z,-0.30
2019-02-26T02:17:35.615Z,-0.50
2019-02-26T02:20:12.668Z,-0.50
2019-02-26T02:22:44.455Z,-0.70
2019-02-26T02:25:16.185Z,-0.70
2019-02-26T02:27:51.730Z,-0.70
2019-02-26T02:30:26.753Z,-0.70
2019-02-26T02:32:56.485Z,-0.60
2019-02-26T02:35:27.137Z,-0.60
2019-02-26T02:38:00.135Z,-0.60
2019-02-26T02:40:32.223Z,-0.50
2019-02-26T02:43:07.526Z,-0.20
2019-02-26T02:45:37.116Z,-0.10
2019-02-26T02:48:11.582Z,0.00
2019-02-26T02:50:42.218Z,0.00
2019-02-26T02:53:15.151Z,-0.10
2019-02-26T02:55:48.835Z,-0.10
2019-02-26T02:58:21.319Z,0.00
2019-02-26T03:00:54.280Z,-0.10
2019-02-26T03:03:26.034Z,-0.10
2019-02-26T03:05:58.370Z,-0.30
2019-02-26T03:08:30.326Z,-0.30
2019-02-26T03:11:01.777Z,-0.50
2019-02-26T03:13:33.003Z,-0.60
2019-02-26T03:16:04.534Z,-0.70
2019-02-26T03:18:35.909Z,-0.70
2019-02-26T03:21:07.359Z,-0.70
2019-02-26T03:23:41.257Z,-0.70
2019-02-26T03:26:14.784Z,-0.60
2019-02-26T03:28:48.002Z,-0.50
2019-02-26T03:31:18.538Z,-0.40
2019-02-26T03:33:50.226Z,-0.30
2019-02-26T03:36:21.665Z,-0.10
2019-02-26T03:38:54.766Z,-0.20
2019-02-26T03:41:28.824Z,-0.20
2019-02-26T03:44:00.711Z,-0.30
2019-02-26T03:46:32.993Z,-0.40
2019-02-26T03:49:04.608Z,-0.40
2019-02-26T03:51:39.164Z,-0.50
2019-02-26T03:54:09.061Z,-0.70
2019-02-26T03:56:40.235Z,-0.80
2019-02-26T03:59:11.860Z,-0.80
2019-02-26T04:01:44.368Z,-0.90
2019-02-26T04:04:16.118Z,-0.90
2019-02-26T04:06:47.437Z,-0.90
2019-02-26T04:09:19.632Z,-0.90
2019-02-26T04:11:53.435Z,-0.90
2019-02-26T04:14:26.373Z,-0.90
2019-02-26T04:16:58.704Z,-0.90
2019-02-26T04:19:30.854Z,-0.80
2019-02-26T04:22:34.603Z,-0.80
2019-02-26T04:25:36.701Z,-0.80
2019-02-26T04:28:44.510Z,-0.90
2019-02-26T04:32:31.539Z,-1.00
2019-02-26T04:36:09.733Z,-1.10
2019-02-26T04:39:28.003Z,-1.20
2019-02-26T04:42:46.870Z,-1.30
2019-02-26T04:46:16.532Z,-1.20
2019-02-26T04:48:47.893Z,-1.20
2019-02-26T04:51:19.349Z,-1.10
2019-02-26T04:53:51.887Z,-1.00
2019-02-26T04:56:23.683Z,-1.10
2019-02-26T04:58:55.131Z,-1.20
2019-02-26T05:01:26.475Z,-1.20
2019-02-26T05:03:58.014Z,-1.30
2019-02-26T05:06:29.276Z,-1.20
2019-02-26T05:09:02.778Z,-1.20
2019-02-26T05:11:40.242Z,-1.30
2019-02-26T05:14:09.217Z,-1.20
2019-02-26T05:16:41.419Z,-1.20
2019-02-26T05:19:13.716Z,-1.20
2019-02-26T05:21:45.649Z,-1.20
2019-02-26T05:24:18.057Z,-1.20
2019-02-26T05:26:49.967Z,-1.10
2019-02-26T05:29:21.131Z,-1.10
2019-02-26T05:31:52.312Z,-1.20
2019-02-26T05:34:25.937Z,-1.20
2019-02-26T05:36:59.659Z,-1.20
2019-02-26T05:39:30.467Z,-1.20
2019-02-26T05:42:03.950Z,-1.20
2019-02-26T05:44:34.504Z,-1.20
2019-02-26T05:47:06.149Z,-1.30
2019-02-26T05:49:38.759Z,-1.30
2019-02-26T05:52:10.822Z,-1.30
2019-02-26T05:54:42.000Z,-1.40
2019-02-26T05:57:27.220Z,-1.40
2019-02-26T05:59:46.376Z,-1.50
2019-02-26T06:02:19.552Z,-1.50
2019-02-26T06:04:50.824Z,-1.50
2019-02-26T06:07:27.019Z,-1.50
2019-02-26T06:09:56.430Z,-1.50
2019-02-26T06:12:32.407Z,-1.50
2019-02-26T06:15:05.111Z,-1.50
2019-02-26T06:17:35.203Z,-1.50
2019-02-26T06:20:17.745Z,-1.40
2019-02-26T06:22:49.218Z,-1.40
2019-02-26T06:25:24.460Z,-1.40
2019-02-26T06:27:53.654Z,-1.50
2019-02-26T06:30:25.149Z,-1.40
2019-02-26T06:32:59.566Z,-1.40
2019-02-26T06:35:30.987Z,-1.30
2019-02-26T06:38:04.613Z,-1.20
2019-02-26T06:40:37.009Z,-1.20
2019-02-26T06:43:09.657Z,-1.10
2019-02-26T06:45:43.074Z,-1.20
2019-02-26T06:48:16.922Z,-1.10
2019-02-26T06:50:46.820Z,-1.10
2019-02-26T06:53:20.966Z,-1.00
2019-02-26T06:55:50.941Z,-0.90
2019-02-26T06:58:27.978Z,-0.80
2019-02-26T07:01:00.860Z,-0.70
2019-02-26T07:03:32.378Z,-0.60
2019-02-26T07:06:04.926Z,-0.50
2019-02-26T07:08:36.226Z,-0.40
2019-02-26T07:11:07.562Z,-0.40
2019-02-26T07:13:41.058Z,-0.30
2019-02-26T07:16:11.970Z,-0.30
2019-02-26T07:18:43.144Z,-0.20
2019-02-26T07:21:14.385Z,-0.20
2019-02-26T07:23:45.556Z,-0.10
2019-02-26T07:26:18.532Z,0.10
2019-02-26T07:28:51.036Z,0.60
2019-02-26T07:31:24.345Z,1.20
2019-02-26T07:33:58.050Z,1.80
2019-02-26T07:36:29.687Z,2.50
2019-02-26T07:39:01.223Z,3.30
2019-02-26T07:41:34.005Z,3.80
2019-02-26T07:44:09.053Z,4.30
2019-02-26T07:46:40.170Z,4.60
2019-02-26T07:49:11.294Z,5.10
2019-02-26T07:51:43.086Z,5.60
2019-02-26T07:54:14.346Z,6.10
2019-02-26T07:56:45.512Z,6.40
2019-02-26T07:59:16.768Z,6.60
2019-02-26T08:01:49.763Z,7.10
2019-02-26T08:04:21.353Z,7.40
2019-02-26T08:06:54.964Z,7.60
2019-02-26T08:09:26.118Z,7.60
2019-02-26T08:11:57.844Z,7.70
2019-02-26T08:14:29.467Z,8.10
2019-02-26T08:17:01.905Z,8.20
2019-02-26T08:19:36.664Z,8.30
2019-02-26T08:22:07.456Z,8.40
2019-02-26T08:24:38.692Z,8.30
2019-02-26T08:27:11.609Z,8.80
2019-02-26T08:29:43.393Z,9.00
2019-02-26T08:32:18.117Z,9.10
2019-02-26T08:34:47.438Z,9.50
2019-02-26T08:37:18.705Z,9.70
2019-02-26T08:39:50.172Z,9.90
2019-02-26T08:42:21.757Z,10.30
2019-02-26T08:44:54.196Z,10.80
2019-02-26T08:47:25.845Z,11.00
2019-02-26T08:49:58.825Z,10.80
2019-02-26T08:52:29.987Z,10.10
2019-02-26T08:55:01.805Z,9.40
2019-02-26T08:57:34.593Z,9.60
2019-02-26T09:00:11.609Z,9.90
2019-02-26T09:02:43.719Z,10.30
2019-02-26T09:05:16.872Z,10.50
2019-02-26T09:07:50.586Z,10.90
2019-02-26T09:10:23.370Z,11.10
2019-02-26T09:12:54.404Z,11.30
2019-02-26T09:15:25.875Z,11.70
2019-02-26T09:17:57.184Z,12.00
2019-02-26T09:20:28.812Z,12.30
2019-02-26T09:23:01.500Z,12.20
2019-02-26T09:25:34.099Z,12.40
2019-02-26T09:28:05.725Z,12.40
2019-02-26T09:30:38.963Z,12.40
2019-02-26T09:33:11.140Z,13.00
2019-02-26T09:35:42.732Z,13.40
2019-02-26T09:38:15.049Z,13.40
2019-02-26T09:40:48.107Z,13.70
2019-02-26T09:43:22.046Z,13.90
2019-02-26T09:45:52.985Z,14.40
2019-02-26T09:48:24.250Z,14.60
2019-02-26T09:50:55.421Z,15.00
2019-02-26T09:53:26.583Z,15.10
2019-02-26T09:55:57.932Z,15.20
2019-02-26T09:58:29.186Z,15.30
2019-02-26T10:01:00.383Z,15.90
2019-02-26T10:03:36.623Z,16.10
2019-02-26T10:06:05.230Z,16.50
2019-02-26T10:08:36.727Z,16.70
2019-02-26T10:11:08.261Z,17.00
2019-02-26T10:13:41.848Z,17.40
2019-02-26T10:16:12.725Z,17.30
2019-02-26T10:18:45.081Z,17.60
2019-02-26T10:21:18.463Z,17.70
2019-02-26T10:23:52.135Z,17.60
2019-02-26T10:26:26.106Z,17.80
2019-02-26T10:29:02.330Z,18.30
2019-02-26T10:31:31.884Z,18.40
2019-02-26T10:34:05.786Z,18.50
2019-02-26T10:36:40.777Z,18.70
2019-02-26T10:39:09.102Z,19.00
2019-02-26T10:41:44.101Z,19.10
2019-02-26T10:44:15.076Z,18.70
2019-02-26T10:46:47.234Z,19.00
2019-02-26T10:49:18.408Z,19.20
2019-02-26T10:51:49.858Z,19.30
2019-02-26T10:54:21.032Z,19.40
2019-02-26T10:56:52.494Z,19.40
2019-02-26T10:59:24.747Z,19.50
2019-02-26T11:01:58.591Z,19.00
2019-02-26T11:04:34.773Z,19.10
2019-02-26T11:07:04.811Z,19.30
2019-02-26T11:09:36.225Z,19.50
2019-02-26T11:12:08.602Z,19.60
2019-02-26T11:14:41.950Z,20.10
2019-02-26T11:17:13.613Z,20.60
2019-02-26T11:19:45.124Z,20.80
2019-02-26T11:22:18.700Z,20.60
2019-02-26T11:24:50.791Z,21.00
2019-02-26T11:27:22.578Z,21.00
2019-02-26T11:29:54.624Z,21.50
2019-02-26T11:32:28.246Z,21.90
2019-02-26T11:35:02.521Z,22.10
2019-02-26T11:37:33.226Z,22.10
2019-02-26T11:40:05.626Z,22.00
2019-02-26T11:42:36.954Z,21.60
2019-02-26T11:45:14.333Z,21.60
2019-02-26T11:47:45.970Z,21.70
2019-02-26T11:50:18.451Z,21.90
2019-02-26T11:52:54.309Z,21.90
2019-02-26T11:55:26.164Z,22.30
2019-02-26T11:57:57.008Z,22.50
2019-02-26T12:00:53.522Z,22.60
2019-02-26T12:03:27.330Z,22.50
2019-02-26T12:06:00.661Z,22.60
2019-02-26T12:08:31.422Z,22.60
2019-02-26T12:11:03.975Z,22.90
2019-02-26T12:13:35.811Z,22.80
2019-02-26T12:16:07.519Z,22.70
2019-02-26T12:18:39.125Z,22.30
2019-02-26T12:21:12.879Z,22.00
2019-02-26T12:23:46.735Z,22.00
2019-02-26T12:26:19.299Z,22.20
2019-02-26T12:28:52.416Z,22.30
2019-02-26T12:31:25.373Z,22.30
2019-02-26T12:33:57.431Z,22.50
2019-02-26T12:36:32.510Z,22.40
2019-02-26T12:39:03.023Z,22.60
2019-02-26T12:41:36.644Z,22.50
2019-02-26T12:44:11.449Z,22.60
2019-02-26T12:46:41.803Z,23.00
2019-02-26T12:49:15.899Z,23.30
2019-02-26T12:51:47.619Z,23.40
2019-02-26T12:54:19.425Z,23.60
2019-02-26T12:56:52.305Z,23.70
2019-02-26T12:59:24.033Z,24.00
2019-02-26T13:01:55.556Z,24.60
2019-02-26T13:04:26.814Z,24.70
2019-02-26T13:06:58.018Z,24.10
2019-02-26T13:09:29.207Z,23.90
2019-02-26T13:12:02.870Z,23.50
2019-02-26T13:14:34.292Z,23.20
2019-02-26T13:17:05.865Z,22.70
2019-02-26T13:19:37.299Z,22.30
2019-02-26T13:22:12.580Z,22.00
2019-02-26T13:24:42.098Z,21.60
2019-02-26T13:27:13.693Z,21.50
2019-02-26T13:29:53.932Z,21.60
2019-02-26T13:32:21.196Z,22.20
2019-02-26T13:34:55.651Z,22.50
2019-02-26T13:37:26.617Z,22.70
2019-02-26T13:39:58.112Z,22.40
2019-02-26T13:42:29.707Z,22.30
2019-02-26T13:45:01.302Z,22.40
2019-02-26T13:47:32.814Z,22.40
2019-02-26T13:50:04.588Z,22.20
2019-02-26T13:52:36.233Z,22.00
2019-02-26T13:55:09.080Z,21.70
2019-02-26T13:57:40.405Z,21.50
2019-02-26T14:00:13.519Z,21.30
2019-02-26T14:02:45.213Z,21.60
2019-02-26T14:05:16.720Z,21.60
2019-02-26T14:07:48.565Z,21.50
2019-02-26T14:10:20.013Z,21.20
2019-02-26T14:12:51.526Z,21.00
2019-02-26T14:15:24.337Z,20.90
2019-02-26T14:17:55.937Z,20.80
2019-02-26T14:20:27.334Z,20.50
2019-02-26T14:22:58.540Z,20.30
2019-02-26T14:25:29.926Z,20.30
2019-02-26T14:28:02.088Z,20.60
2019-02-26T14:30:33.417Z,20.70
2019-02-26T14:33:04.824Z,20.50
2019-02-26T14:35:36.001Z,20.40
2019-02-26T14:38:07.584Z,20.40
2019-02-26T14:40:39.321Z,20.60
2019-02-26T14:43:10.485Z,21.00
2019-02-26T14:45:41.730Z,20.90
2019-02-26T14:48:13.853Z,21.00
2019-02-26T14:50:45.924Z,21.10
2019-02-26T14:53:17.155Z,21.20
2019-02-26T14:55:48.429Z,20.80
2019-02-26T14:58:19.898Z,20.30
2019-02-26T15:00:57.699Z,20.10
2019-02-26T15:03:25.093Z,19.80
2019-02-26T15:05:57.086Z,19.70
2019-02-26T15:08:28.772Z,19.50
2019-02-26T15:11:00.061Z,19.10
2019-02-26T15:13:32.020Z,18.90
2019-02-26T15:16:03.206Z,18.60
2019-02-26T15:18:35.785Z,18.30
2019-02-26T15:21:07.513Z,18.00
2019-02-26T15:23:38.864Z,17.70
2019-02-26T15:26:10.284Z,17.60
2019-02-26T15:28:43.181Z,17.60
2019-02-26T15:31:14.775Z,17.70
2019-02-26T15:33:45.941Z,17.80
2019-02-26T15:36:17.534Z,17.80
2019-02-26T15:38:48.771Z,17.50
2019-02-26T15:41:20.815Z,17.50
2019-02-26T15:43:51.975Z,17.50
2019-02-26T15:46:23.388Z,17.30
2019-02-26T15:48:54.889Z,17.20
2019-02-26T15:51:26.381Z,17.20
2019-02-26T15:53:59.431Z,17.30
2019-02-26T15:56:30.511Z,17.20
2019-02-26T15:59:04.589Z,17.20
2019-02-26T16:01:35.140Z,17.00
2019-02-26T16:04:06.726Z,17.00
2019-02-26T16:06:38.031Z,16.90
2019-02-26T16:09:12.476Z,16.80
2019-02-26T16:11:43.322Z,16.80
2019-02-26T16:14:14.579Z,16.60
2019-02-26T16:16:45.886Z,16.40
2019-02-26T16:19:17.119Z,16.20
2019-02-26T16:21:48.673Z,16.10
2019-02-26T16:24:20.140Z,15.90
2019-02-26T16:26:51.671Z,15.60
2019-02-26T16:29:23.071Z,15.40
2019-02-26T16:31:54.378Z,15.10
2019-02-26T16:34:25.572Z,14.80
2019-02-26T16:36:57.178Z,14.60
2019-02-26T16:39:28.691Z,14.40
2019-02-26T16:42:00.136Z,14.30
2019-02-26T16:44:31.380Z,14.10
2019-02-26T16:47:05.176Z,13.80
2019-02-26T16:49:36.362Z,13.50
2019-02-26T16:52:07.955Z,13.20
2019-02-26T16:54:40.908Z,12.80
2019-02-26T16:57:12.131Z,12.50
2019-02-26T16:59:43.461Z,12.40
2019-02-26T17:02:15.684Z,12.20
2019-02-26T17:04:47.270Z,12.00
2019-02-26T17:07:18.569Z,11.70
2019-02-26T17:09:50.097Z,11.40
2019-02-26T17:12:21.407Z,11.00
2019-02-26T17:14:52.718Z,10.60
2019-02-26T17:17:24.089Z,10.20
2019-02-26T17:19:55.442Z,9.90
2019-02-26T17:22:28.528Z,9.60
2019-02-26T17:25:00.273Z,9.50
2019-02-26T17:27:32.145Z,9.30
2019-02-26T17:30:03.535Z,9.10
2019-02-26T17:32:35.760Z,8.90
2019-02-26T17:35:10.334Z,8.80
2019-02-26T17:37:42.169Z,8.80
2019-02-26T17:40:15.290Z,8.60
2019-02-26T17:42:48.859Z,8.20
2019-02-26T17:45:20.577Z,7.90
2019-02-26T17:47:54.503Z,7.50
2019-02-26T17:50:29.516Z,7.30
2019-02-26T17:53:00.781Z,7.20
2019-02-26T17:55:32.362Z,7.20
2019-02-26T17:58:04.111Z,7.20
2019-02-26T18:00:38.605Z,7.50
2019-02-26T18:03:09.916Z,7.60
2019-02-26T18:05:50.940Z,7.90
2019-02-26T18:08:18.855Z,8.20
2019-02-26T18:10:47.831Z,8.40
2019-02-26T18:13:20.642Z,8.60
2019-02-26T18:15:55.923Z,8.90
2019-02-26T18:18:25.493Z,9.00
2019-02-26T18:20:56.825Z,9.00
2019-02-26T18:23:28.153Z,8.90
2019-02-26T18:25:59.403Z,8.70
2019-02-26T18:28:30.597Z,8.70
2019-02-26T18:31:02.271Z,8.80
2019-02-26T18:33:35.562Z,8.90
2019-02-26T18:36:06.598Z,9.00
2019-02-26T18:38:38.440Z,9.10
2019-02-26T18:41:10.153Z,9.20
2019-02-26T18:43:41.391Z,9.30
2019-02-26T18:46:12.973Z,9.30
2019-02-26T18:48:44.258Z,9.30
2019-02-26T18:51:15.912Z,9.30
2019-02-26T18:53:47.933Z,9.30
2019-02-26T18:56:19.192Z,9.30
2019-02-26T18:58:51.839Z,9.30
2019-02-26T19:01:23.216Z,9.20
2019-02-26T19:03:54.568Z,9.10
2019-02-26T19:06:27.002Z,8.90
2019-02-26T19:09:00.277Z,8.70
2019-02-26T19:11:33.173Z,8.50
2019-02-26T19:14:08.999Z,8.50
2019-02-26T19:16:38.099Z,8.50
2019-02-26T19:19:09.763Z,8.40
2019-02-26T19:21:41.291Z,8.40
2019-02-26T19:24:13.025Z,8.40
2019-02-26T19:26:44.493Z,8.40
2019-02-26T19:29:17.284Z,8.30
2019-02-26T19:31:48.540Z,8.40
2019-02-26T19:34:19.862Z,8.40
2019-02-26T19:36:51.497Z,8.40
2019-02-26T19:39:22.742Z,8.40
2019-02-26T19:41:54.329Z,8.50
2019-02-26T19:44:25.552Z,8.50
2019-02-26T19:46:57.149Z,8.60
2019-02-26T19:49:28.310Z,8.70
2019-02-26T19:51:59.485Z,8.80
2019-02-26T19:54:30.801Z,8.80
2019-02-26T19:57:02.074Z,8.70
2019-02-26T19:59:33.342Z,8.70
2019-02-26T20:02:04.588Z,8.70
2019-02-26T20:04:38.167Z,8.70
2019-02-26T20:07:09.311Z,8.70
2019-02-26T20:09:41.590Z,8.70
2019-02-26T20:12:13.644Z,8.60
2019-02-26T20:14:48.619Z,8.50
2019-02-26T20:17:18.391Z,8.40
2019-02-26T20:19:49.552Z,8.40
2019-02-26T20:22:21.072Z,8.30
2019-02-26T20:24:52.409Z,8.20
2019-02-26T20:27:23.647Z,8.30
2019-02-26T20:29:56.037Z,8.30
2019-02-26T20:32:30.898Z,8.30
2019-02-26T20:35:01.055Z,8.30
2019-02-26T20:37:32.960Z,8.40
2019-02-26T20:40:04.632Z,8.40
2019-02-26T20:42:36.019Z,8.40
2019-02-26T20:45:08.839Z,8.50
2019-02-26T20:47:40.371Z,8.50
2019-02-26T20:50:12.073Z,8.40
2019-02-26T20:52:43.602Z,8.10
2019-02-26T20:55:19.213Z,8.10
2019-02-26T20:57:50.449Z,8.10
2019-02-26T21:00:25.016Z,8.00
2019-02-26T21:02:55.050Z,8.00
2019-02-26T21:05:26.521Z,8.00
2019-02-26T21:07:58.902Z,8.10
2019-02-26T21:10:30.788Z,8.20
2019-02-26T21:13:02.493Z,8.30
2019-02-26T21:15:34.887Z,8.40
2019-02-26T21:18:06.224Z,8.40
2019-02-26T21:20:38.821Z,8.50
2019-02-26T21:23:10.354Z,8.60
2019-02-26T21:25:44.440Z,8.70
2019-02-26T21:28:14.890Z,8.80
2019-02-26T21:30:46.441Z,8.80
2019-02-26T21:33:18.177Z,8.90
2019-02-26T21:35:51.940Z,8.80
2019-02-26T21:38:22.602Z,9.10
2019-02-26T21:40:53.925Z,9.20
2019-02-26T21:43:25.096Z,9.30
2019-02-26T21:45:56.991Z,9.30
2019-02-26T21:48:28.304Z,9.30
2019-02-26T21:50:59.449Z,9.30
2019-02-26T21:53:30.647Z,9.30
2019-02-26T21:56:01.811Z,9.40
2019-02-26T21:58:33.047Z,9.40
2019-02-26T22:01:04.449Z,9.40
2019-02-26T22:03:35.699Z,9.30
2019-02-26T22:06:10.750Z,9.30
2019-02-26T22:08:40.290Z,9.10
2019-02-26T22:11:11.556Z,8.90
2019-02-26T22:13:42.979Z,8.60
2019-02-26T22:16:14.955Z,8.30
2019-02-26T22:18:46.451Z,8.00
2019-02-26T22:21:19.075Z,7.80
2019-02-26T22:23:50.857Z,7.70
2019-02-26T22:26:23.631Z,7.60
2019-02-26T22:28:55.366Z,7.50
2019-02-26T22:31:28.907Z,7.40
2019-02-26T22:33:59.763Z,7.30
2019-02-26T22:36:33.251Z,7.10
2019-02-26T22:39:05.679Z,7.00
2019-02-26T22:41:38.549Z,6.80
2019-02-26T22:44:10.082Z,6.60
2019-02-26T22:46:41.724Z,6.40
2019-02-26T22:49:12.975Z,6.20
2019-02-26T22:51:44.549Z,6.00
2019-02-26T22:54:16.016Z,5.80
2019-02-26T22:56:47.170Z,5.60
2019-02-26T22:59:18.740Z,5.30
2019-02-26T23:01:51.590Z,5.10
2019-02-26T23:04:23.038Z,4.80
2019-02-26T23:06:54.414Z,4.50
2019-02-26T23:09:27.960Z,4.30
2019-02-26T23:11:59.435Z,4.20
2019-02-26T23:14:31.681Z,4.10
2019-02-26T23:17:05.186Z,4.00
2019-02-26T23:19:37.128Z,4.00
2019-02-26T23:22:09.032Z,4.00
2019-02-26T23:24:41.051Z,4.10
2019-02-26T23:27:14.964Z,4.10
2019-02-26T23:29:46.838Z,4.10
2019-02-26T23:32:19.581Z,4.10
2019-02-26T23:35:16.227Z,4.10
2019-02-26T23:37:47.779Z,4.20
2019-02-26T23:40:20.712Z,4.40
2019-02-26T23:42:52.482Z,4.40
2019-02-26T23:45:24.740Z,4.40
2019-02-26T23:47:56.181Z,4.60
2019-02-26T23:50:27.524Z,4.60
2019-02-26T23:53:01.212Z,4.50
2019-02-26T23:55:32.163Z,4.80
2019-02-26T23:58:03.390Z,4.80
